Time;durP1;ratioP1;P1;durP2;ratioP2;P2;SDS_P1;SDS_P2;PMS_P1;PMS_P2;Temp;Humidity;BMP_temperature;BMP_pressure;BME280_temperature;BME280_humidity;BME280_pressure;Samples;Min_cycle;Max_cycle;Signal;HPM_P1;HPM_P2
2023/12/01 00:00:14;;;;;;;5.72;2.47;;;6.30;76.50;;;;;;5035022;28;20083;-70
2023/12/01 00:02:40;;;;;;;6.88;3.95;;;6.20;76.10;;;;;;5034486;28;20052;-70
2023/12/01 00:05:07;;;;;;;4.00;2.42;;;6.30;76.30;;;;;;5035437;28;20034;-70
2023/12/01 00:07:33;;;;;;;19.65;3.28;;;6.30;75.60;;;;;;5034361;28;20505;-69
2023/12/01 00:09:59;;;;;;;5.55;3.97;;;6.30;76.20;;;;;;5035508;28;20033;-72
2023/12/01 00:12:25;;;;;;;9.27;4.88;;;6.30;76.20;;;;;;5033709;28;20049;-72
2023/12/01 00:14:51;;;;;;;10.55;5.70;;;6.30;76.20;;;;;;5035029;28;20091;-72
2023/12/01 00:17:17;;;;;;;10.73;4.03;;;6.30;76.40;;;;;;5034340;28;20046;-72
2023/12/01 00:19:43;;;;;;;9.48;4.50;;;6.30;76.30;;;;;;5035038;28;20091;-70
2023/12/01 00:22:10;;;;;;;13.27;5.68;;;6.30;76.20;;;;;;5016635;28;20453;-72
2023/12/01 00:24:36;;;;;;;6.30;5.57;;;6.30;76.30;;;;;;5035062;28;20029;-72
2023/12/01 00:27:02;;;;;;;10.40;6.18;;;6.30;76.50;;;;;;5034138;28;20360;-70
2023/12/01 00:29:28;;;;;;;4.35;3.45;;;6.30;76.40;;;;;;5034822;28;20041;-72
2023/12/01 00:31:54;;;;;;;12.80;7.55;;;6.40;76.30;;;;;;5034508;28;20445;-72
2023/12/01 00:34:20;;;;;;;6.13;4.07;;;6.40;76.40;;;;;;5033679;28;20032;-70
2023/12/01 00:36:46;;;;;;;7.95;4.43;;;6.30;76.40;;;;;;5035369;28;20099;-71
2023/12/01 00:39:12;;;;;;;16.85;7.13;;;6.40;76.40;;;;;;5033637;28;20030;-69
2023/12/01 00:41:38;;;;;;;6.90;4.13;;;6.40;76.30;;;;;;5034153;28;20052;-70
2023/12/01 00:44:04;;;;;;;6.50;3.35;;;6.40;76.20;;;;;;5033555;28;20029;-71
2023/12/01 00:46:30;;;;;;;3.80;2.20;;;6.40;76.10;;;;;;5034816;28;20398;-69
2023/12/01 00:48:56;;;;;;;6.70;4.07;;;6.40;76.10;;;;;;5033422;28;20041;-72
2023/12/01 00:51:22;;;;;;;;;;;6.50;76.10;;;;;;5033411;28;20091;-69
2023/12/01 00:53:48;;;;;;;7.78;4.68;;;6.40;76.00;;;;;;5066657;28;19917;-72
2023/12/01 00:56:15;;;;;;;4.35;2.17;;;6.50;76.10;;;;;;5033299;28;20037;-69
2023/12/01 00:58:41;;;;;;;;;;;6.40;75.90;;;;;;5033779;28;20044;-70
2023/12/01 01:01:07;;;;;;;7.32;3.92;;;6.40;76.20;;;;;;5049311;28;19925;-72
2023/12/01 01:03:34;;;;;;;4.30;2.38;;;6.40;76.00;;;;;;5033146;28;20109;-72
2023/12/01 01:06:01;;;;;;;8.15;3.50;;;6.40;75.40;;;;;;5016600;28;20037;-70
2023/12/01 01:08:30;;;;;;;4.82;2.88;;;6.50;75.90;;;;;;5016509;28;20047;-70
2023/12/01 01:10:56;;;;;;;3.65;2.78;;;6.50;75.90;;;;;;5016001;28;20060;-72
2023/12/01 01:13:26;;;;;;;3.50;3.00;;;6.50;75.90;;;;;;5034007;28;20390;-70
2023/12/01 01:15:52;;;;;;;4.30;2.53;;;6.60;75.90;;;;;;5034203;28;20049;-69
2023/12/01 01:18:18;;;;;;;4.18;3.53;;;6.50;76.00;;;;;;5034201;28;20060;-72
2023/12/01 01:20:44;;;;;;;3.95;2.33;;;6.50;75.90;;;;;;5033601;28;20041;-72
2023/12/01 01:23:10;;;;;;;8.15;3.67;;;6.50;75.90;;;;;;5032979;28;20335;-70
2023/12/01 01:25:36;;;;;;;4.55;3.08;;;6.60;75.90;;;;;;5032423;28;20041;-72
2023/12/01 01:28:02;;;;;;;4.72;1.67;;;6.50;75.90;;;;;;5034173;28;20037;-72
2023/12/01 01:30:28;;;;;;;4.13;2.60;;;6.60;76.00;;;;;;5032024;28;20036;-72
2023/12/01 01:32:54;;;;;;;6.95;2.38;;;6.60;75.90;;;;;;5034051;28;20037;-71
2023/12/01 01:35:20;;;;;;;2.97;2.40;;;6.60;75.90;;;;;;5033594;28;20037;-72
2023/12/01 01:37:46;;;;;;;4.22;1.80;;;6.60;75.90;;;;;;5032941;28;20034;-69
2023/12/01 01:40:13;;;;;;;4.80;2.88;;;6.60;75.90;;;;;;5031993;28;20398;-72
2023/12/01 01:42:39;;;;;;;8.45;2.25;;;6.60;75.80;;;;;;5032142;28;20044;-72
2023/12/01 01:45:06;;;;;;;11.27;3.33;;;6.60;76.00;;;;;;5033062;28;20044;-72
2023/12/01 01:47:33;;;;;;;6.50;4.43;;;6.60;75.50;;;;;;5032653;28;20072;-72
2023/12/01 01:50:01;;;;;;;10.00;3.38;;;6.60;75.80;;;;;;5015665;28;20033;-69
2023/12/01 01:52:27;;;;;;;4.60;3.22;;;6.60;76.40;;;;;;5031841;28;20038;-72
2023/12/01 01:54:53;;;;;;;3.95;2.95;;;6.60;76.60;;;;;;5033361;28;20037;-72
2023/12/01 01:57:20;;;;;;;2.85;1.55;;;6.60;76.50;;;;;;5032363;28;20042;-72
2023/12/01 01:59:45;;;;;;;;;;;6.60;76.40;;;;;;5033826;28;20034;-72
2023/12/01 02:02:11;;;;;;;4.43;3.13;;;6.60;76.40;;;;;;5031627;28;20008;-69
2023/12/01 02:04:37;;;;;;;5.07;3.80;;;6.60;76.20;;;;;;5031994;28;20037;-72
2023/12/01 02:07:04;;;;;;;4.10;2.28;;;6.60;76.50;;;;;;5032065;28;20064;-69
2023/12/01 02:09:49;;;;;;;8.07;4.35;;;6.60;76.60;;;;;;5031917;28;20494;-71
2023/12/01 02:12:15;;;;;;;5.50;3.08;;;6.60;77.10;;;;;;5015276;28;20438;-70
2023/12/01 02:14:41;;;;;;;2.80;2.42;;;6.60;76.80;;;;;;5015220;28;20060;-70
2023/12/01 02:17:07;;;;;;;7.13;4.72;;;6.70;76.90;;;;;;5015397;28;20037;-72
2023/12/01 02:19:33;;;;;;;4.03;2.25;;;6.70;76.90;;;;;;5033079;28;20052;-69
2023/12/01 02:21:59;;;;;;;4.30;2.70;;;6.70;77.00;;;;;;5032324;28;20067;-70
2023/12/01 02:24:25;;;;;;;4.72;2.08;;;6.70;77.00;;;;;;5032861;28;20080;-69
2023/12/01 02:26:51;;;;;;;4.97;2.70;;;6.80;76.90;;;;;;5033047;28;20042;-72
2023/12/01 02:29:17;;;;;;;4.00;2.47;;;6.80;76.90;;;;;;5032738;28;20052;-69
2023/12/01 02:31:43;;;;;;;3.85;2.88;;;6.80;77.80;;;;;;5030856;28;20045;-70
2023/12/01 02:34:09;;;;;;;5.53;2.80;;;6.80;77.00;;;;;;5032709;28;20049;-70
2023/12/01 02:36:35;;;;;;;4.45;3.85;;;6.80;77.20;;;;;;5031669;28;20038;-72
2023/12/01 02:39:02;;;;;;;8.65;5.65;;;6.80;77.30;;;;;;5032633;28;20460;-70
2023/12/01 02:41:29;;;;;;;6.93;4.43;;;6.80;77.70;;;;;;5032198;28;20398;-69
2023/12/01 02:43:55;;;;;;;;;;;6.80;78.20;;;;;;5015200;28;20060;-72
2023/12/01 02:46:22;;;;;;;6.32;3.67;;;6.80;78.10;;;;;;5033013;28;19921;-70
2023/12/01 02:48:50;;;;;;;7.78;3.10;;;6.80;78.30;;;;;;5032378;28;20033;-69
2023/12/01 02:51:16;;;;;;;5.80;3.40;;;6.70;78.50;;;;;;5030739;28;20364;-72
2023/12/01 02:53:42;;;;;;;9.13;5.97;;;6.70;78.80;;;;;;5032391;28;20394;-69
2023/12/01 02:56:09;;;;;;;6.40;4.60;;;6.80;78.80;;;;;;5030432;28;20046;-72
2023/12/01 02:58:35;;;;;;;6.65;4.80;;;6.70;78.60;;;;;;5031180;28;20401;-69
2023/12/01 03:01:03;;;;;;;7.95;5.07;;;6.80;78.80;;;;;;5031577;28;20052;-72
2023/12/01 03:03:29;;;;;;;6.10;3.38;;;6.70;78.90;;;;;;5032419;28;20026;-69
2023/12/01 03:05:55;;;;;;;8.50;4.75;;;6.70;79.10;;;;;;5032307;28;20034;-70
2023/12/01 03:08:21;;;;;;;10.55;6.05;;;6.70;79.10;;;;;;5032399;28;20037;-69
2023/12/01 03:10:48;;;;;;;6.53;4.85;;;6.70;78.90;;;;;;5030629;28;20030;-70
2023/12/01 03:13:14;;;;;;;9.30;4.18;;;6.70;78.90;;;;;;5031079;28;20029;-69
2023/12/01 03:15:41;;;;;;;12.07;4.72;;;6.70;80.00;;;;;;5031086;28;20040;-69
2023/12/01 03:18:07;;;;;;;6.07;2.75;;;6.70;79.30;;;;;;5014771;28;20443;-72
2023/12/01 03:20:33;;;;;;;;;;;6.70;79.50;;;;;;5031023;28;20398;-71
2023/12/01 03:22:59;;;;;;;6.38;3.80;;;6.70;79.50;;;;;;5064306;28;19917;-69
2023/12/01 03:25:25;;;;;;;8.43;4.28;;;6.70;79.40;;;;;;5032450;28;20376;-72
2023/12/01 03:27:51;;;;;;;9.35;6.00;;;6.60;79.50;;;;;;5031098;28;20099;-70
2023/12/01 03:30:19;;;;;;;5.90;3.92;;;6.60;79.50;;;;;;5030127;28;20095;-70
2023/12/01 03:32:48;;;;;;;4.80;3.03;;;6.50;79.30;;;;;;5030939;28;20033;-72
2023/12/01 03:35:17;;;;;;;10.40;5.13;;;6.60;79.00;;;;;;5030828;28;20038;-69
2023/12/01 03:37:44;;;;;;;2.83;2.00;;;6.60;78.90;;;;;;5031149;28;20033;-72
2023/12/01 03:40:14;;;;;;;7.78;4.53;;;6.50;78.70;;;;;;5030321;28;20029;-72
2023/12/01 03:42:59;;;;;;;3.80;2.50;;;6.50;78.10;;;;;;5014510;28;20390;-72
2023/12/01 03:45:26;;;;;;;3.88;2.47;;;6.50;78.70;;;;;;5030624;28;20029;-70
2023/12/01 03:47:52;;;;;;;8.18;6.28;;;6.50;78.70;;;;;;5030987;28;20113;-72
2023/12/01 03:50:21;;;;;;;3.40;2.78;;;6.40;78.60;;;;;;5030152;28;20050;-69
2023/12/01 03:52:49;;;;;;;6.10;4.68;;;6.50;78.70;;;;;;5030787;28;20030;-72
2023/12/01 03:55:16;;;;;;;1.23;1.05;;;6.50;78.60;;;;;;5031816;28;20491;-70
2023/12/01 03:57:44;;;;;;;5.57;4.40;;;6.40;77.80;;;;;;5031103;28;20087;-72
2023/12/01 04:00:14;;;;;;;5.93;4.40;;;6.50;78.40;;;;;;5030012;28;20494;-72
2023/12/01 04:02:42;;;;;;;2.95;1.98;;;6.40;78.30;;;;;;5030780;28;20092;-72
2023/12/01 04:05:17;;;;;;;3.75;1.98;;;6.40;78.30;;;;;;5030643;28;20041;-72
2023/12/01 04:08:03;;;;;;;3.20;2.90;;;6.50;78.10;;;;;;5032789;28;20041;-69
2023/12/01 04:10:29;;;;;;;9.00;5.30;;;6.50;77.60;;;;;;5034797;28;20049;-72
2023/12/01 04:12:55;;;;;;;;;;;6.40;77.40;;;;;;5036121;28;20065;-72
2023/12/01 04:15:24;;;;;;;4.57;2.25;;;6.40;77.40;;;;;;5067506;28;20004;-71
2023/12/01 04:17:50;;;;;;;4.13;2.08;;;6.40;77.00;;;;;;5034353;28;20072;-69
2023/12/01 04:20:22;;;;;;;2.38;1.65;;;6.40;76.80;;;;;;5034583;28;20041;-70
2023/12/01 04:23:09;;;;;;;8.77;4.20;;;6.40;76.50;;;;;;5035331;28;20061;-70
2023/12/01 04:25:55;;;;;;;5.68;2.33;;;6.40;76.40;;;;;;5017294;28;20030;-72
2023/12/01 04:28:21;;;;;;;2.30;1.55;;;6.40;76.40;;;;;;5033914;28;20041;-70
2023/12/01 04:30:47;;;;;;;5.65;2.03;;;6.40;76.50;;;;;;5032993;28;20087;-69
2023/12/01 04:33:13;;;;;;;3.72;2.70;;;6.40;76.20;;;;;;5017314;28;20033;-70
2023/12/01 04:35:40;;;;;;;3.22;1.65;;;6.50;76.30;;;;;;5033572;28;20572;-72
2023/12/01 04:38:05;;;;;;;;;;;6.40;76.10;;;;;;5035431;28;20038;-72
2023/12/01 04:40:32;;;;;;;3.83;2.83;;;6.40;76.20;;;;;;5032990;28;19983;-69
2023/12/01 04:42:59;;;;;;;8.35;2.10;;;6.40;75.90;;;;;;5017040;28;20086;-72
2023/12/01 04:45:27;;;;;;;3.10;2.65;;;6.40;75.10;;;;;;5034832;28;20033;-70
2023/12/01 04:47:55;;;;;;;7.10;2.85;;;6.40;75.60;;;;;;5033549;28;20499;-72
2023/12/01 04:50:25;;;;;;;1.65;1.05;;;6.40;75.60;;;;;;5032919;28;20409;-72
2023/12/01 04:53:12;;;;;;;2.95;2.30;;;6.40;75.60;;;;;;5033488;28;20040;-70
2023/12/01 04:55:38;;;;;;;3.33;1.88;;;6.40;75.60;;;;;;5034547;28;20042;-72
2023/12/01 04:58:04;;;;;;;3.42;1.77;;;6.40;75.70;;;;;;5017013;28;20037;-72
2023/12/01 05:00:30;;;;;;;2.97;2.03;;;6.50;75.70;;;;;;5034033;28;20029;-72
2023/12/01 05:03:01;;;;;;;6.68;4.05;;;6.50;75.80;;;;;;5033219;28;20457;-70
2023/12/01 05:05:30;;;;;;;8.82;2.78;;;6.40;75.70;;;;;;5016837;28;20034;-72
2023/12/01 05:07:59;;;;;;;4.25;3.47;;;6.50;75.80;;;;;;5035160;28;20394;-70
2023/12/01 05:10:28;;;;;;;3.00;1.45;;;6.50;76.00;;;;;;5032600;28;20034;-72
2023/12/01 05:12:56;;;;;;;4.20;2.35;;;6.50;76.30;;;;;;5033027;28;20415;-69
2023/12/01 05:15:25;;;;;;;7.80;3.03;;;6.50;76.60;;;;;;5034068;28;20025;-70
2023/12/01 05:18:10;;;;;;;6.93;2.25;;;6.50;76.70;;;;;;5033247;28;20037;-70
2023/12/01 05:20:37;;;;;;;4.90;2.35;;;6.50;77.00;;;;;;5032808;28;20414;-72
2023/12/01 05:23:22;;;;;;;6.80;4.05;;;6.50;76.80;;;;;;5032923;28;20107;-69
2023/12/01 05:25:50;;;;;;;4.32;3.72;;;6.50;77.20;;;;;;5032540;28;20033;-69
2023/12/01 05:28:17;;;;;;;4.43;2.15;;;6.50;77.40;;;;;;5033952;28;20039;-69
2023/12/01 05:33:31;;;;;;;10.27;4.25;;;6.50;77.10;;;;;;5032872;28;20040;-72
2023/12/01 05:35:57;;;;;;;4.70;2.35;;;6.60;77.80;;;;;;5032587;28;20061;-72
2023/12/01 05:38:23;;;;;;;3.67;2.15;;;6.60;77.80;;;;;;5033742;28;20032;-70
2023/12/01 05:40:49;;;;;;;2.83;1.80;;;6.50;77.90;;;;;;5033073;28;20056;-69
2023/12/01 05:43:16;;;;;;;4.32;2.85;;;6.50;78.20;;;;;;5032487;28;20041;-72
2023/12/01 05:45:42;;;;;;;4.68;3.33;;;6.60;78.30;;;;;;5033567;28;20025;-72
2023/12/01 05:48:08;;;;;;;;;;;6.60;78.40;;;;;;5034147;28;20045;-72
2023/12/01 05:50:34;;;;;;;5.18;3.25;;;6.60;78.50;;;;;;5029745;28;20313;-70
2023/12/01 05:53:06;;;;;;;8.35;3.25;;;6.60;78.60;;;;;;5033934;28;20037;-72
2023/12/01 05:58:17;;;;;;;5.32;3.13;;;6.60;78.70;;;;;;5032753;28;20125;-72
2023/12/01 06:00:43;;;;;;;;;;;6.60;79.50;;;;;;5031996;28;20072;-72
2023/12/01 06:03:11;;;;;;;4.00;2.53;;;6.70;79.70;;;;;;5033318;28;20019;-71
2023/12/01 06:05:38;;;;;;;4.95;2.97;;;6.60;79.60;;;;;;5031802;28;20026;-72
2023/12/01 06:08:05;;;;;;;3.30;2.83;;;6.70;80.10;;;;;;5015428;28;20033;-69
2023/12/01 06:10:32;;;;;;;7.13;2.28;;;6.70;80.40;;;;;;5030772;28;20037;-72
2023/12/01 06:12:59;;;;;;;3.08;2.42;;;6.70;79.90;;;;;;5033438;28;20052;-72
2023/12/01 06:15:29;;;;;;;3.65;2.75;;;6.70;80.80;;;;;;5032448;28;20033;-72
2023/12/01 06:17:57;;;;;;;4.68;2.80;;;6.70;80.80;;;;;;5031714;28;20076;-70
2023/12/01 06:20:24;;;;;;;8.45;3.05;;;6.80;80.80;;;;;;5031286;28;20129;-70
2023/12/01 06:22:52;;;;;;;3.05;1.85;;;6.80;80.70;;;;;;5015060;28;20560;-72
2023/12/01 06:25:20;;;;;;;3.05;2.75;;;6.80;81.10;;;;;;5031756;28;20071;-70
2023/12/01 06:27:47;;;;;;;4.43;2.40;;;6.80;81.30;;;;;;5032004;28;20041;-70
2023/12/01 06:30:15;;;;;;;8.00;3.67;;;6.80;81.30;;;;;;5030510;28;20034;-72
2023/12/01 06:33:00;;;;;;;3.33;3.03;;;6.80;81.50;;;;;;5031685;28;20042;-72
2023/12/01 06:35:27;;;;;;;7.47;2.10;;;6.90;81.60;;;;;;5031734;28;20029;-70
2023/12/01 06:37:53;;;;;;;;;;;6.90;81.20;;;;;;5032272;28;20079;-69
2023/12/01 06:40:20;;;;;;;6.40;2.90;;;6.90;81.30;;;;;;5032106;28;20020;-71
2023/12/01 06:43:09;;;;;;;3.42;2.20;;;6.90;81.50;;;;;;5031519;28;20041;-70
2023/12/01 06:45:36;;;;;;;4.15;2.45;;;7.00;81.50;;;;;;5031456;28;20367;-72
2023/12/01 06:48:02;;;;;;;4.95;3.05;;;7.00;81.70;;;;;;5031411;28;20057;-69
2023/12/01 06:50:29;;;;;;;3.47;2.10;;;7.00;81.90;;;;;;5031936;28;20037;-72
2023/12/01 06:52:58;;;;;;;3.50;2.85;;;7.00;81.40;;;;;;5032799;28;20045;-72
2023/12/01 06:55:25;;;;;;;2.83;2.17;;;7.00;81.90;;;;;;5032538;28;20076;-70
2023/12/01 06:57:51;;;;;;;;;;;7.00;81.40;;;;;;5015301;28;20049;-72
2023/12/01 07:00:39;;;;;;;5.13;2.17;;;7.00;82.10;;;;;;5031741;28;20317;-69
2023/12/01 07:05:52;;;;;;;4.25;3.10;;;7.10;81.70;;;;;;5031482;28;20099;-69
2023/12/01 07:08:17;;;;;;;;;;;7.10;81.90;;;;;;5027395;28;20484;-70
2023/12/01 07:10:44;;;;;;;3.63;1.90;;;7.10;81.90;;;;;;5017154;28;19929;-69
2023/12/01 07:13:10;;;;;;;4.63;3.13;;;7.10;81.90;;;;;;5015013;28;20038;-72
2023/12/01 07:15:37;;;;;;;3.92;2.63;;;7.10;82.10;;;;;;5014686;28;20026;-69
2023/12/01 07:18:08;;;;;;;7.60;4.20;;;7.10;81.90;;;;;;5032302;28;20034;-70
2023/12/01 07:20:34;;;;;;;3.80;2.80;;;7.20;81.90;;;;;;5030668;28;20128;-70
2023/12/01 07:23:01;;;;;;;7.15;4.20;;;7.20;81.80;;;;;;5032806;28;20056;-70
2023/12/01 07:25:27;;;;;;;2.90;1.95;;;7.30;81.70;;;;;;5031389;28;20402;-70
2023/12/01 07:28:12;;;;;;;6.70;3.83;;;7.20;81.40;;;;;;5027830;28;20033;-70
2023/12/01 07:30:40;;;;;;;5.68;4.78;;;7.30;81.40;;;;;;5011786;28;20053;-69
2023/12/01 07:35:56;;;;;;;6.05;2.90;;;7.30;80.90;;;;;;5011656;28;20434;-72
2023/12/01 07:38:23;;;;;;;3.95;2.60;;;7.30;80.90;;;;;;5012173;28;20061;-69
2023/12/01 07:40:49;;;;;;;;;;;7.30;80.50;;;;;;5012188;28;20038;-69
2023/12/01 07:43:15;;;;;;;4.72;3.45;;;7.40;80.50;;;;;;5014076;28;20382;-70
2023/12/01 07:45:41;;;;;;;10.98;2.03;;;7.40;79.90;;;;;;5016311;28;20073;-70
2023/12/01 07:48:09;;;;;;;3.65;1.98;;;7.40;79.70;;;;;;5016484;28;20459;-71
2023/12/01 07:50:36;;;;;;;2.03;1.48;;;7.40;79.40;;;;;;5015212;28;20066;-69
2023/12/01 07:53:04;;;;;;;;;;;7.50;79.10;;;;;;5031708;28;20491;-72
2023/12/01 07:55:30;;;;;;;3.97;1.95;;;7.60;78.80;;;;;;5016088;28;20271;-69
2023/12/01 07:57:56;;;;;;;;;;;7.70;78.20;;;;;;5016854;28;20092;-72
2023/12/01 08:00:22;;;;;;;7.47;3.10;;;7.90;77.80;;;;;;5014558;28;20027;-72
2023/12/01 08:02:52;;;;;;;8.13;2.00;;;8.00;77.00;;;;;;5014767;28;20046;-72
2023/12/01 08:05:18;;;;;;;2.65;1.80;;;8.10;76.60;;;;;;5008215;28;20096;-72
2023/12/01 08:07:51;;;;;;;6.40;2.22;;;8.20;75.70;;;;;;5034654;28;20042;-72
2023/12/01 08:10:21;;;;;;;7.13;2.38;;;8.30;75.70;;;;;;5017599;28;20509;-70
2023/12/01 08:12:50;;;;;;;5.97;2.47;;;8.50;75.20;;;;;;5034053;28;20038;-72
2023/12/01 08:15:16;;;;;;;2.33;1.33;;;8.70;74.50;;;;;;5034183;28;20138;-72
2023/12/01 08:17:45;;;;;;;6.18;3.63;;;8.90;73.20;;;;;;5033522;28;20083;-72
2023/12/01 08:20:11;;;;;;;3.63;1.33;;;9.10;72.40;;;;;;5033516;28;20060;-70
2023/12/01 08:22:38;;;;;;;2.28;0.85;;;9.40;71.90;;;;;;5033772;28;20494;-72
2023/12/01 08:25:05;;;;;;;2.28;1.88;;;9.50;71.00;;;;;;5034380;28;20437;-71
2023/12/01 08:27:31;;;;;;;0.98;0.75;;;9.50;70.10;;;;;;5035721;28;20038;-70
2023/12/01 08:29:57;;;;;;;0.73;0.47;;;9.50;70.10;;;;;;5017381;28;20044;-69
2023/12/01 08:32:23;;;;;;;3.17;1.75;;;9.40;70.40;;;;;;5034194;28;20065;-71
2023/12/01 08:34:51;;;;;;;3.95;1.48;;;9.60;69.80;;;;;;5033160;28;20029;-69
2023/12/01 08:37:17;;;;;;;1.95;1.67;;;9.70;69.30;;;;;;5033918;28;20071;-70
2023/12/01 08:39:44;;;;;;;4.50;2.72;;;9.70;68.20;;;;;;5017119;28;20113;-69
2023/12/01 08:42:10;;;;;;;2.33;0.95;;;9.60;68.90;;;;;;5032897;28;20636;-69
2023/12/01 08:44:36;;;;;;;;;;;9.60;69.30;;;;;;5033915;28;20060;-70
2023/12/01 08:47:02;;;;;;;1.17;1.02;;;9.60;69.20;;;;;;5066992;28;20370;-71
2023/12/01 08:49:29;;;;;;;;;;;9.70;67.60;;;;;;5034207;28;20033;-69
2023/12/01 08:51:55;;;;;;;2.20;1.20;;;10.40;66.70;;;;;;5014858;28;19936;-69
2023/12/01 08:54:40;;;;;;;2.33;1.77;;;10.70;63.80;;;;;;5029690;28;20026;-72
2023/12/01 08:57:06;;;;;;;1.45;1.02;;;10.40;64.20;;;;;;5023560;28;20091;-69
2023/12/01 08:59:32;;;;;;;1.10;0.90;;;10.30;64.80;;;;;;5016737;28;20026;-69
2023/12/01 09:01:58;;;;;;;0.98;0.65;;;10.30;64.70;;;;;;5015652;28;20048;-71
2023/12/01 09:04:24;;;;;;;2.10;1.00;;;10.30;64.80;;;;;;5031032;28;20430;-69
2023/12/01 09:06:50;;;;;;;2.85;1.98;;;10.30;65.30;;;;;;5014563;28;20034;-71
2023/12/01 09:09:17;;;;;;;1.55;1.15;;;10.60;63.70;;;;;;4998730;28;20095;-69
2023/12/01 09:11:43;;;;;;;3.72;0.77;;;10.50;63.40;;;;;;5029328;28;20061;-69
2023/12/01 09:14:09;;;;;;;4.03;1.35;;;10.70;63.80;;;;;;5032812;28;20517;-72
2023/12/01 09:16:35;;;;;;;3.97;1.35;;;11.00;62.10;;;;;;5034056;28;20037;-69
2023/12/01 09:19:01;;;;;;;1.42;1.10;;;11.20;61.30;;;;;;5033063;28;20036;-70
2023/12/01 09:21:27;;;;;;;1.35;1.00;;;11.20;60.90;;;;;;5033206;28;20092;-69
2023/12/01 09:23:53;;;;;;;1.83;1.23;;;11.30;60.80;;;;;;5032799;28;20038;-69
2023/12/01 09:26:19;;;;;;;2.20;0.90;;;11.30;60.00;;;;;;5027920;28;20041;-71
2023/12/01 09:28:48;;;;;;;2.25;1.40;;;11.40;59.70;;;;;;5032229;28;20513;-71
2023/12/01 09:31:14;;;;;;;1.55;0.75;;;11.40;58.80;;;;;;5031561;28;20084;-69
2023/12/01 09:33:40;;;;;;;1.33;0.57;;;12.00;58.10;;;;;;5031958;28;20045;-69
2023/12/01 09:36:08;;;;;;;3.03;1.73;;;12.20;57.40;;;;;;5032081;28;20037;-72
2023/12/01 09:38:35;;;;;;;1.45;1.20;;;11.90;57.80;;;;;;5032095;28;20056;-70
2023/12/01 09:41:01;;;;;;;2.42;2.22;;;12.30;58.10;;;;;;5031055;28;20441;-72
2023/12/01 09:43:30;;;;;;;;;;;12.90;56.50;;;;;;5013368;28;20042;-72
2023/12/01 09:45:56;;;;;;;2.20;1.38;;;13.30;54.90;;;;;;5023089;28;19929;-69
2023/12/01 09:48:23;;;;;;;7.07;2.08;;;14.00;52.90;;;;;;5033467;28;20468;-72
2023/12/01 09:50:49;;;;;;;;;;;13.70;53.50;;;;;;5031607;28;20047;-72
2023/12/01 09:53:19;;;;;;;0.80;0.60;;;14.00;53.60;;;;;;5031927;28;20374;-71
2023/12/01 09:55:45;;;;;;;2.08;1.15;;;15.00;51.60;;;;;;5032050;28;20302;-70
2023/12/01 09:58:12;;;;;;;4.82;1.40;;;15.50;48.30;;;;;;5031548;28;20041;-72
2023/12/01 10:00:38;;;;;;;2.25;1.67;;;16.20;46.30;;;;;;5020789;28;20038;-69
2023/12/01 10:03:05;;;;;;;2.03;1.63;;;15.90;47.00;;;;;;5031660;28;20498;-71
2023/12/01 10:08:18;;;;;;;2.77;1.57;;;14.70;50.10;;;;;;5032189;28;20064;-72
2023/12/01 10:10:44;;;;;;;2.00;1.23;;;14.60;50.70;;;;;;5032185;28;20451;-72
2023/12/01 10:13:11;;;;;;;2.78;1.52;;;15.00;49.10;;;;;;5031291;28;20120;-71
2023/12/01 10:15:38;;;;;;;2.05;1.33;;;15.00;49.30;;;;;;5028568;28;20479;-72
2023/12/01 10:18:23;;;;;;;3.05;1.30;;;15.00;48.10;;;;;;5011902;28;20038;-72
2023/12/01 10:21:03;;;;;;;3.40;1.05;;;14.80;48.30;;;;;;5022196;28;20045;-72
2023/12/01 10:23:30;;;;;;;2.40;1.08;;;14.50;48.90;;;;;;5031363;28;20048;-72
2023/12/01 10:25:57;;;;;;;2.00;1.70;;;15.30;48.00;;;;;;5031471;28;20061;-72
2023/12/01 10:28:57;;;;;;;1.02;0.80;;;15.70;46.50;;;;;;5027619;28;20034;-69
2023/12/01 10:31:23;;;;;;;1.83;1.23;;;15.30;46.00;;;;;;5031441;28;20037;-69
2023/12/01 10:33:49;;;;;;;1.27;0.80;;;15.30;46.50;;;;;;5018390;28;20049;-69
2023/12/01 10:36:19;;;;;;;3.65;2.40;;;15.60;44.90;;;;;;5026106;28;20387;-69
2023/12/01 10:38:47;;;;;;;3.17;1.65;;;14.80;46.90;;;;;;5031029;28;20039;-69
2023/12/01 10:41:15;;;;;;;2.90;2.10;;;14.70;47.10;;;;;;5014167;28;20096;-72
2023/12/01 10:43:44;;;;;;;2.63;1.75;;;14.30;48.50;;;;;;5031950;28;20021;-70
2023/12/01 10:46:13;;;;;;;1.30;0.82;;;14.10;49.20;;;;;;5031148;28;20045;-69
2023/12/01 10:48:39;;;;;;;1.98;0.90;;;13.90;49.80;;;;;;5032205;28;20040;-72
2023/12/01 10:51:06;;;;;;;;;;;13.80;49.40;;;;;;5026657;28;20041;-72
2023/12/01 10:53:32;;;;;;;2.03;1.23;;;13.90;49.50;;;;;;5032027;28;19917;-72
2023/12/01 10:56:17;;;;;;;;;;;14.20;48.80;;;;;;5015136;28;20048;-72
2023/12/01 10:58:52;;;;;;;4.07;2.17;;;14.50;48.30;;;;;;5031775;28;20267;-72
2023/12/01 11:01:22;;;;;;;1.25;0.90;;;14.60;47.80;;;;;;5013482;28;20068;-72
2023/12/01 11:03:49;;;;;;;5.35;3.28;;;14.30;48.20;;;;;;5031005;28;20045;-72
2023/12/01 11:07:03;;;;;;;5.40;1.88;;;14.20;48.50;;;;;;5024639;28;20029;-72
2023/12/01 11:10:14;;;;;;;3.40;1.95;;;14.00;49.10;;;;;;5010937;28;20038;-70
2023/12/01 11:13:18;;;;;;;1.38;1.05;;;13.90;49.70;;;;;;5011027;28;20046;-69
2023/12/01 11:15:49;;;;;;;3.67;2.22;;;13.40;50.90;;;;;;5021194;28;20036;-69
2023/12/01 11:18:16;;;;;;;2.85;1.55;;;13.30;51.30;;;;;;5033987;28;20029;-69
2023/12/01 11:20:45;;;;;;;3.70;1.17;;;13.60;50.90;;;;;;5033889;28;20030;-69
2023/12/01 11:23:11;;;;;;;2.13;1.05;;;13.70;50.30;;;;;;5035204;28;20125;-72
2023/12/01 11:26:05;;;;;;;2.28;0.65;;;13.70;50.30;;;;;;5023653;28;20037;-69
2023/12/01 11:33:53;;;;;;;7.40;2.10;;;14.90;46.90;;;;;;5034911;28;20564;-69
2023/12/01 11:36:37;;;;;;;2.90;1.42;;;14.50;47.10;;;;;;5010426;28;20049;-70
2023/12/01 11:42:00;;;;;;;2.65;1.63;;;13.40;50.60;;;;;;5016151;28;20096;-69
2023/12/01 11:44:29;;;;;;;2.08;1.52;;;12.80;52.00;;;;;;5016359;28;20113;-69
2023/12/01 11:46:57;;;;;;;3.20;1.33;;;12.60;52.70;;;;;;5014984;28;20041;-69
2023/12/01 11:49:44;;;;;;;12.65;3.88;;;12.50;52.90;;;;;;5014690;28;20057;-69
2023/12/01 11:52:18;;;;;;;1.30;0.80;;;13.10;52.10;;;;;;5015826;28;20038;-70
2023/12/01 11:54:47;;;;;;;1.50;0.95;;;13.70;50.40;;;;;;5014741;28;20036;-72
2023/12/01 11:57:17;;;;;;;3.03;2.25;;;13.80;49.90;;;;;;5031745;28;20030;-72
2023/12/01 11:59:44;;;;;;;5.10;2.88;;;13.80;49.90;;;;;;5014696;28;20041;-72
2023/12/01 12:02:10;;;;;;;8.27;2.10;;;14.00;50.10;;;;;;5015520;28;20476;-69
2023/12/01 12:07:24;;;;;;;5.05;2.33;;;14.00;50.00;;;;;;5015131;28;20048;-71
2023/12/01 12:09:50;;;;;;;2.35;1.40;;;14.10;49.60;;;;;;5014479;28;20533;-69
2023/12/01 12:12:18;;;;;;;5.43;2.47;;;14.10;49.10;;;;;;5014034;28;20060;-70
2023/12/01 12:14:46;;;;;;;2.85;1.52;;;14.00;49.70;;;;;;5014814;28;20432;-71
2023/12/01 12:17:12;;;;;;;5.40;2.60;;;13.90;50.00;;;;;;5015859;28;20475;-72
2023/12/01 12:19:58;;;;;;;3.38;1.88;;;13.80;49.60;;;;;;5015586;28;20041;-69
2023/12/01 12:22:25;;;;;;;3.53;1.88;;;13.70;49.50;;;;;;5045778;28;20061;-72
2023/12/01 12:24:52;;;;;;;1.77;1.63;;;13.60;49.30;;;;;;5014461;28;20076;-72
2023/12/01 12:27:18;;;;;;;1.77;1.05;;;13.60;51.00;;;;;;5047469;28;20049;-71
2023/12/01 12:29:45;;;;;;;1.85;1.15;;;13.50;50.30;;;;;;5038092;28;20416;-72
2023/12/01 12:32:11;;;;;;;1.75;1.13;;;13.40;50.60;;;;;;5034784;28;20034;-72
2023/12/01 12:34:38;;;;;;;3.20;1.58;;;13.20;50.60;;;;;;5015251;28;20080;-72
2023/12/01 12:37:05;;;;;;;2.88;1.17;;;13.40;51.20;;;;;;5014207;28;20034;-72
2023/12/01 12:39:33;;;;;;;2.45;1.48;;;13.60;50.30;;;;;;5014091;28;20578;-70
2023/12/01 12:42:01;;;;;;;1.38;0.90;;;13.50;49.70;;;;;;4996720;28;20056;-69
2023/12/01 12:47:15;;;;;;;2.30;2.07;;;14.20;49.70;;;;;;5014145;28;20081;-70
2023/12/01 12:49:41;;;;;;;0.85;0.50;;;14.30;49.00;;;;;;5014150;28;20037;-72
2023/12/01 12:52:07;;;;;;;2.95;1.35;;;13.80;50.20;;;;;;5042309;28;20462;-69
2023/12/01 12:54:33;;;;;;;1.52;0.98;;;13.50;51.20;;;;;;5033438;28;20025;-71
2023/12/01 12:56:59;;;;;;;1.73;1.13;;;13.50;51.50;;;;;;5035016;28;20062;-71
2023/12/01 12:59:25;;;;;;;4.72;1.88;;;13.60;51.10;;;;;;5033406;28;20064;-70
2023/12/01 13:01:52;;;;;;;2.63;1.63;;;13.70;50.30;;;;;;5016057;28;20038;-72
2023/12/01 13:04:19;;;;;;;2.47;1.35;;;13.70;50.50;;;;;;5031861;28;20133;-71
2023/12/01 13:06:45;;;;;;;1.70;0.93;;;13.50;50.50;;;;;;5014037;28;20038;-72
2023/12/01 13:09:13;;;;;;;;;;;13.20;51.50;;;;;;5014130;28;20426;-72
2023/12/01 13:11:39;;;;;;;2.78;1.50;;;12.90;52.10;;;;;;5014538;28;20040;-72
2023/12/01 13:14:07;;;;;;;4.55;1.80;;;12.80;52.60;;;;;;5013088;28;20503;-69
2023/12/01 13:16:34;;;;;;;1.50;1.40;;;12.80;52.40;;;;;;5014501;28;20491;-70
2023/12/01 13:19:00;;;;;;;1.33;0.82;;;12.90;52.70;;;;;;5019390;28;20083;-69
2023/12/01 13:21:27;;;;;;;1.55;1.13;;;13.10;51.90;;;;;;5031894;28;20053;-71
2023/12/01 13:23:53;;;;;;;2.20;1.58;;;13.10;52.00;;;;;;5017820;28;20026;-69
2023/12/01 13:26:19;;;;;;;2.95;2.63;;;13.40;51.00;;;;;;5013918;28;20046;-71
2023/12/01 13:28:46;;;;;;;4.70;1.35;;;14.00;48.90;;;;;;5013264;28;20030;-71
2023/12/01 13:31:13;;;;;;;3.20;1.33;;;14.10;48.70;;;;;;5012409;28;20434;-70